Time;durP1;ratioP1;P1;durP2;ratioP2;P2;SDS_P1;SDS_P2;PMS_P1;PMS_P2;Temp;Humidity;BMP_temperature;BMP_pressure;BME280_temperature;BME280_humidity;BME280_pressure;Samples;Min_cycle;Max_cycle;Signal;HPM_P1;HPM_P2
2022/06/04 00:00:29;;;;;;;14.20;7.05;;;10.80;99.90;;;;;;5136729;27;20058;-78
2022/06/04 00:02:57;;;;;;;15.95;6.60;;;10.80;99.90;;;;;;5118735;27;20047;-78
2022/06/04 00:05:26;;;;;;;10.38;7.03;;;10.80;99.90;;;;;;5124538;27;20498;-78
2022/06/04 00:07:53;;;;;;;14.75;7.70;;;10.70;99.90;;;;;;5138711;27;20408;-79
2022/06/04 00:15:54;;;;;;;14.85;7.70;;;10.70;99.90;;;;;;5138847;27;20074;-78
2022/06/04 00:18:23;;;;;;;19.80;8.82;;;10.70;99.90;;;;;;5139199;27;20050;-78
2022/06/04 00:20:51;;;;;;;13.85;8.02;;;10.70;99.90;;;;;;5144375;27;20047;-79
2022/06/04 00:23:19;;;;;;;15.65;8.82;;;10.70;99.90;;;;;;5118212;27;20051;-78
2022/06/04 00:25:49;;;;;;;12.02;7.47;;;10.70;99.90;;;;;;5118326;27;20108;-78
2022/06/04 00:28:17;;;;;;;15.17;8.97;;;10.70;99.90;;;;;;5118123;27;20096;-78
2022/06/04 00:30:45;;;;;;;13.95;8.88;;;10.70;99.90;;;;;;5135385;27;20055;-80
2022/06/04 00:33:13;;;;;;;13.60;7.47;;;10.70;99.90;;;;;;5136606;27;20051;-80
2022/06/04 00:35:44;;;;;;;11.40;7.60;;;10.70;99.90;;;;;;5149323;27;20053;-78
2022/06/04 00:38:15;;;;;;;13.60;7.97;;;10.70;99.90;;;;;;5138507;27;20141;-78
2022/06/04 00:40:47;;;;;;;15.07;7.70;;;10.60;99.90;;;;;;5138513;27;20054;-79
2022/06/04 00:43:14;;;;;;;22.58;9.60;;;10.60;99.90;;;;;;5157323;27;20398;-79
2022/06/04 00:46:18;;;;;;;15.65;7.95;;;10.60;99.90;;;;;;5138873;27;20043;-79
2022/06/04 00:48:45;;;;;;;16.63;8.18;;;10.60;99.90;;;;;;5138273;27;20218;-79
2022/06/04 00:51:14;;;;;;;12.15;7.28;;;10.50;99.90;;;;;;5136866;27;20055;-79
2022/06/04 00:53:42;;;;;;;18.38;8.57;;;10.60;99.90;;;;;;5136581;27;20079;-79
2022/06/04 00:56:18;;;;;;;18.67;9.15;;;10.50;99.90;;;;;;5136159;27;20131;-80
2022/06/04 00:58:59;;;;;;;18.83;7.70;;;10.90;99.90;;;;;;5136344;27;20047;-79
2022/06/04 01:01:28;;;;;;;17.70;8.95;;;10.60;99.90;;;;;;5117256;27;20482;-79
2022/06/04 01:04:07;;;;;;;11.95;8.18;;;10.60;99.90;;;;;;5117356;27;20318;-79
2022/06/04 01:06:48;;;;;;;18.55;9.68;;;10.50;99.90;;;;;;5117655;27;20047;-77
2022/06/04 01:09:30;;;;;;;17.10;8.63;;;10.60;99.90;;;;;;5118338;27;20043;-78
2022/06/04 01:12:15;;;;;;;19.10;9.50;;;10.50;99.90;;;;;;5117184;27;20051;-78
2022/06/04 01:15:08;;;;;;;15.93;8.20;;;10.50;99.90;;;;;;5135741;27;20491;-77
2022/06/04 01:17:47;;;;;;;17.88;9.23;;;10.50;99.90;;;;;;5141060;27;20049;-78
2022/06/04 01:20:26;;;;;;;13.57;7.80;;;10.50;99.90;;;;;;5156704;27;20424;-77
2022/06/04 01:26:34;;;;;;;17.05;7.65;;;10.40;99.90;;;;;;5110760;27;20109;-77
2022/06/04 01:29:06;;;;;;;11.85;6.68;;;10.40;99.90;;;;;;5072403;28;20051;-77
2022/06/04 01:31:38;;;;;;;17.63;8.15;;;10.40;99.90;;;;;;5090010;28;20416;-76
2022/06/04 01:34:09;;;;;;;15.52;7.32;;;10.40;99.90;;;;;;5052126;28;20045;-77
2022/06/04 01:36:43;;;;;;;21.65;7.30;;;10.30;99.90;;;;;;5070463;28;20056;-76
2022/06/04 01:39:16;;;;;;;11.70;6.93;;;10.30;99.90;;;;;;5069836;28;20107;-78
2022/06/04 01:41:47;;;;;;;13.15;7.38;;;10.30;99.90;;;;;;5070155;28;20493;-76
2022/06/04 01:44:20;;;;;;;12.88;7.15;;;10.30;99.90;;;;;;5051612;28;20036;-77
2022/06/04 01:46:51;;;;;;;12.30;7.43;;;10.30;99.90;;;;;;5052212;28;20106;-77
2022/06/04 01:49:22;;;;;;;14.70;7.68;;;10.30;99.90;;;;;;5070300;28;20049;-76
2022/06/04 01:51:51;;;;;;;17.77;8.05;;;10.30;99.90;;;;;;5069405;28;20056;-76
2022/06/04 01:54:24;;;;;;;10.27;6.15;;;10.20;99.90;;;;;;5069630;28;20053;-76
2022/06/04 01:56:56;;;;;;;13.80;6.20;;;10.30;99.90;;;;;;5052043;28;20497;-76
2022/06/04 01:59:28;;;;;;;12.30;7.00;;;10.20;99.90;;;;;;5069355;28;20052;-76
2022/06/04 02:02:00;;;;;;;15.52;7.30;;;10.20;99.90;;;;;;5051624;28;20106;-76
2022/06/04 02:04:30;;;;;;;11.40;6.13;;;10.20;99.90;;;;;;5069726;28;20535;-76
2022/06/04 02:09:53;;;;;;;11.88;6.78;;;10.10;99.90;;;;;;5069746;28;20067;-76
2022/06/04 02:12:22;;;;;;;10.13;5.50;;;10.10;99.90;;;;;;5068993;28;20147;-76
2022/06/04 02:14:50;;;;;;;10.45;6.75;;;10.10;99.90;;;;;;5069078;28;20075;-77
2022/06/04 02:17:22;;;;;;;13.90;6.78;;;10.10;99.90;;;;;;5051767;28;20060;-77
2022/06/04 02:19:49;;;;;;;11.40;6.75;;;10.00;99.90;;;;;;5051270;28;20057;-76
2022/06/04 02:22:17;;;;;;;11.90;5.47;;;10.00;99.90;;;;;;5069356;28;20499;-77
2022/06/04 02:24:45;;;;;;;12.88;6.70;;;9.90;99.90;;;;;;5051251;28;20052;-77
2022/06/04 02:27:12;;;;;;;11.07;6.55;;;9.90;99.90;;;;;;5068089;28;20386;-76
2022/06/04 02:29:42;;;;;;;12.50;6.25;;;9.90;99.90;;;;;;5051225;28;20059;-75
2022/06/04 02:32:16;;;;;;;11.63;5.97;;;9.90;99.90;;;;;;5051549;28;20510;-77
2022/06/04 02:34:55;;;;;;;12.13;5.63;;;9.90;99.90;;;;;;5051086;28;20053;-75
2022/06/04 02:37:28;;;;;;;13.85;6.47;;;9.90;99.90;;;;;;5038118;28;20056;-77
2022/06/04 02:39:59;;;;;;;14.57;6.57;;;9.90;99.90;;;;;;5055886;28;20080;-76
2022/06/04 02:42:33;;;;;;;10.13;5.97;;;9.90;99.90;;;;;;5055689;28;20057;-77
2022/06/04 02:45:06;;;;;;;13.55;6.43;;;9.90;99.90;;;;;;5053773;28;20053;-78
2022/06/04 02:47:38;;;;;;;9.95;6.15;;;9.90;99.90;;;;;;5055632;28;20416;-77
2022/06/04 02:50:11;;;;;;;12.40;5.93;;;9.90;99.90;;;;;;5055776;28;20132;-76
2022/06/04 02:52:38;;;;;;;10.35;6.32;;;10.00;99.90;;;;;;5055653;28;20056;-76
2022/06/04 02:55:10;;;;;;;10.98;5.90;;;10.00;99.90;;;;;;5055082;28;20052;-77
2022/06/04 02:57:43;;;;;;;12.13;5.88;;;10.00;99.90;;;;;;5037498;28;20056;-78
2022/06/04 03:00:16;;;;;;;11.95;6.30;;;10.10;99.90;;;;;;5037904;28;20056;-76
2022/06/04 03:02:43;;;;;;;16.08;6.47;;;10.10;99.90;;;;;;5054515;28;20492;-76
2022/06/04 03:05:13;;;;;;;11.57;6.32;;;10.10;99.90;;;;;;5054695;28;20516;-77
2022/06/04 03:07:42;;;;;;;;;;;10.20;99.90;;;;;;5036385;28;20053;-76
2022/06/04 03:10:13;;;;;;;13.68;5.97;;;10.30;99.90;;;;;;5054157;28;20439;-78
2022/06/04 03:12:40;;;;;;;12.60;6.30;;;10.30;99.90;;;;;;5053827;28;20060;-79
2022/06/04 03:15:09;;;;;;;13.35;6.05;;;10.30;99.90;;;;;;5037751;28;20053;-77
2022/06/04 03:17:37;;;;;;;10.40;6.28;;;10.30;99.90;;;;;;5054594;28;20133;-77
2022/06/04 03:20:07;;;;;;;11.93;6.55;;;10.30;99.90;;;;;;5055512;28;20052;-78
2022/06/04 03:22:34;;;;;;;14.38;6.25;;;10.40;99.90;;;;;;5037068;28;20053;-76
2022/06/04 03:25:01;;;;;;;12.70;7.10;;;10.40;99.90;;;;;;5054305;28;20052;-77
2022/06/04 03:27:28;;;;;;;11.52;7.13;;;10.40;99.90;;;;;;5037003;28;20065;-77
2022/06/04 03:29:55;;;;;;;13.13;6.63;;;10.30;99.90;;;;;;5036695;28;20053;-77
2022/06/04 03:32:22;;;;;;;18.00;8.32;;;10.40;99.90;;;;;;5036902;28;20079;-77
2022/06/04 03:34:50;;;;;;;13.55;8.10;;;10.30;99.90;;;;;;5037009;28;20049;-77
2022/06/04 03:37:17;;;;;;;18.65;7.43;;;10.30;99.90;;;;;;5039395;28;20051;-78
2022/06/04 03:39:44;;;;;;;16.38;7.07;;;10.30;99.90;;;;;;5060694;28;20060;-76
2022/06/04 03:42:11;;;;;;;13.13;6.82;;;10.30;99.90;;;;;;5082380;28;20146;-77
2022/06/04 03:44:40;;;;;;;10.95;6.03;;;10.30;99.90;;;;;;5062253;28;20385;-78
2022/06/04 03:47:07;;;;;;;10.13;6.38;;;10.20;99.90;;;;;;5073707;28;20059;-77
2022/06/04 03:49:34;;;;;;;11.82;6.18;;;10.20;99.90;;;;;;5056264;28;20357;-77
2022/06/04 03:52:02;;;;;;;14.32;6.35;;;10.10;99.90;;;;;;5055977;28;20052;-77
2022/06/04 03:59:58;;;;;;;13.30;6.10;;;10.20;99.90;;;;;;5074316;28;20055;-78
2022/06/04 04:02:25;;;;;;;11.85;6.03;;;10.10;99.90;;;;;;5056557;28;20056;-77
2022/06/04 04:04:52;;;;;;;9.07;5.97;;;10.20;99.90;;;;;;5072618;28;20080;-77
2022/06/04 04:07:20;;;;;;;11.35;5.97;;;10.20;99.90;;;;;;5036132;28;20056;-77
2022/06/04 04:09:47;;;;;;;10.93;5.43;;;10.20;99.90;;;;;;5036619;28;20057;-77
2022/06/04 04:12:14;;;;;;;14.00;6.20;;;10.20;99.90;;;;;;5053576;28;20608;-77
2022/06/04 04:14:41;;;;;;;8.13;5.40;;;10.20;99.90;;;;;;5054540;28;20049;-76
2022/06/04 04:17:09;;;;;;;9.68;5.35;;;10.30;99.90;;;;;;5037978;28;20057;-76
2022/06/04 04:19:36;;;;;;;6.35;4.50;;;10.30;99.90;;;;;;5053187;28;20110;-76
2022/06/04 04:22:03;;;;;;;8.98;5.10;;;10.30;99.90;;;;;;5036052;28;20393;-77
2022/06/04 04:24:31;;;;;;;8.82;5.45;;;10.40;99.90;;;;;;5053356;28;20057;-77
2022/06/04 04:26:58;;;;;;;6.13;4.35;;;10.40;99.90;;;;;;5053381;28;20053;-77
2022/06/04 04:29:25;;;;;;;8.15;4.93;;;10.50;99.90;;;;;;5035726;28;20084;-77
2022/06/04 04:31:52;;;;;;;8.10;4.68;;;10.50;99.90;;;;;;5053406;28;20052;-76
2022/06/04 04:34:19;;;;;;;10.00;4.82;;;10.50;99.90;;;;;;5035372;28;20049;-77
2022/06/04 04:36:46;;;;;;;9.95;4.78;;;10.60;99.90;;;;;;5053075;28;20492;-77
2022/06/04 04:39:13;;;;;;;11.45;5.35;;;10.70;99.90;;;;;;5057700;28;20060;-76
2022/06/04 04:41:41;;;;;;;10.77;4.80;;;10.80;99.90;;;;;;5040538;28;20099;-77
2022/06/04 04:44:09;;;;;;;8.30;4.18;;;10.80;99.90;;;;;;5059001;28;20053;-77
2022/06/04 04:46:35;;;;;;;11.00;4.43;;;10.90;99.90;;;;;;5036178;28;20052;-75
2022/06/04 04:49:02;;;;;;;9.15;4.10;;;10.90;99.90;;;;;;5035299;28;20404;-77
2022/06/04 04:51:30;;;;;;;7.65;3.97;;;11.00;99.90;;;;;;5035774;28;20048;-76
2022/06/04 04:53:57;;;;;;;7.53;4.65;;;11.10;99.90;;;;;;5034777;28;20049;-77
2022/06/04 04:56:25;;;;;;;6.30;4.00;;;11.20;99.90;;;;;;5035251;28;20053;-77
2022/06/04 04:58:54;;;;;;;10.50;5.57;;;11.20;99.90;;;;;;5052445;28;20068;-76
2022/06/04 05:01:24;;;;;;;9.02;4.60;;;11.40;99.90;;;;;;5052761;28;20136;-77
2022/06/04 05:03:52;;;;;;;6.70;4.13;;;11.50;99.90;;;;;;5035280;28;20052;-77
2022/06/04 05:06:20;;;;;;;8.38;4.40;;;11.60;99.90;;;;;;5034902;28;20053;-79
2022/06/04 05:08:49;;;;;;;8.48;4.93;;;11.70;99.90;;;;;;5034568;28;20536;-77
2022/06/04 05:11:19;;;;;;;7.13;4.50;;;11.90;99.90;;;;;;5035221;28;20141;-78
2022/06/04 05:13:49;;;;;;;7.15;4.97;;;12.00;99.90;;;;;;5035286;28;20053;-78
2022/06/04 05:16:18;;;;;;;6.93;4.53;;;12.20;99.90;;;;;;5034817;28;20049;-78
2022/06/04 05:18:45;;;;;;;10.25;4.47;;;12.40;99.90;;;;;;5035134;28;20049;-80
2022/06/04 05:21:17;;;;;;;5.55;4.28;;;12.50;99.90;;;;;;5037656;28;20110;-78
2022/06/04 05:23:44;;;;;;;7.88;4.05;;;12.70;99.90;;;;;;5038066;28;20052;-79
2022/06/04 05:26:11;;;;;;;7.30;4.38;;;12.90;99.90;;;;;;5043161;28;20049;-78
2022/06/04 05:28:38;;;;;;;11.90;4.40;;;13.00;99.90;;;;;;5035862;28;20467;-78
2022/06/04 05:31:05;;;;;;;7.63;4.18;;;13.20;99.90;;;;;;5048259;28;20063;-80
2022/06/04 05:33:34;;;;;;;14.45;4.70;;;13.30;99.90;;;;;;5045226;28;20053;-79
2022/06/04 05:36:01;;;;;;;6.03;3.78;;;13.50;99.90;;;;;;5044915;28;20057;-78
2022/06/04 05:38:28;;;;;;;6.75;3.63;;;13.70;99.90;;;;;;5034852;28;20064;-77
2022/06/04 05:41:00;;;;;;;7.93;4.35;;;13.90;99.90;;;;;;5035350;28;20052;-77
2022/06/04 05:43:28;;;;;;;7.53;4.30;;;14.00;99.90;;;;;;5052332;28;20052;-75
2022/06/04 05:45:58;;;;;;;7.68;4.07;;;14.20;99.90;;;;;;5035351;28;20045;-77
2022/06/04 05:48:25;;;;;;;5.40;3.78;;;14.40;99.90;;;;;;5035664;28;20049;-76
2022/06/04 05:50:53;;;;;;;7.78;3.90;;;14.70;99.90;;;;;;5034400;28;20122;-76
2022/06/04 05:53:20;;;;;;;7.30;3.83;;;14.80;99.90;;;;;;5052233;28;20076;-74
2022/06/04 05:55:48;;;;;;;9.63;4.22;;;14.80;99.90;;;;;;5056703;28;20115;-76
2022/06/04 05:58:15;;;;;;;5.53;3.15;;;15.10;99.90;;;;;;5040025;28;20049;-76
2022/06/04 06:00:42;;;;;;;6.93;3.90;;;15.10;99.90;;;;;;5046067;28;20048;-77
2022/06/04 06:03:09;;;;;;;6.18;4.05;;;15.30;99.90;;;;;;5048780;28;20051;-77
2022/06/04 06:05:41;;;;;;;7.75;4.43;;;15.40;99.90;;;;;;5065938;28;20139;-77
2022/06/04 06:08:09;;;;;;;6.45;4.30;;;15.50;99.90;;;;;;5046967;28;20141;-79
2022/06/04 06:10:40;;;;;;;6.20;4.00;;;15.70;99.90;;;;;;5050580;28;20051;-78
2022/06/04 06:13:07;;;;;;;;;;;16.00;99.90;;;;;;5070427;28;20128;-77
2022/06/04 06:15:34;;;;;;;5.57;3.60;;;16.30;99.90;;;;;;5068657;28;19920;-77
2022/06/04 06:18:01;;;;;;;6.18;3.47;;;16.40;99.90;;;;;;5070949;28;20424;-79
2022/06/04 06:20:28;;;;;;;11.85;3.72;;;16.40;99.90;;;;;;5068958;28;20044;-76
2022/06/04 06:22:55;;;;;;;6.28;3.33;;;16.40;99.90;;;;;;5076088;28;20057;-76
2022/06/04 06:25:24;;;;;;;8.98;3.60;;;16.40;99.90;;;;;;5039268;28;20077;-77
2022/06/04 06:27:51;;;;;;;6.63;3.58;;;16.40;99.90;;;;;;5049366;28;20048;-77
2022/06/04 06:30:18;;;;;;;6.05;3.47;;;16.60;99.90;;;;;;5050608;28;20057;-77
2022/06/04 06:32:46;;;;;;;6.57;3.47;;;16.90;99.90;;;;;;5047997;28;20405;-77
2022/06/04 06:35:13;;;;;;;5.35;3.40;;;17.20;99.90;;;;;;5048759;28;20132;-77
2022/06/04 06:37:41;;;;;;;6.53;3.60;;;17.10;99.90;;;;;;5030089;28;20045;-76
2022/06/04 06:40:09;;;;;;;7.18;3.15;;;17.10;99.90;;;;;;5025211;28;20045;-77
2022/06/04 06:42:37;;;;;;;4.97;3.20;;;17.20;99.90;;;;;;5047700;28;20049;-75
2022/06/04 06:45:04;;;;;;;6.18;3.30;;;17.40;99.90;;;;;;5046791;28;20061;-76
2022/06/04 06:47:33;;;;;;;8.82;3.67;;;17.50;99.90;;;;;;5027319;28;20150;-77
2022/06/04 06:50:00;;;;;;;5.07;3.80;;;17.90;99.90;;;;;;5032971;28;20133;-76
2022/06/04 06:52:27;;;;;;;6.15;4.32;;;18.00;99.90;;;;;;5032554;28;20140;-79
2022/06/04 06:54:54;;;;;;;8.15;4.20;;;18.20;99.90;;;;;;5029256;28;20056;-77
2022/06/04 06:57:22;;;;;;;7.13;3.45;;;18.30;99.90;;;;;;5050773;28;20049;-77
2022/06/04 06:59:50;;;;;;;7.03;3.25;;;18.30;99.90;;;;;;5036228;28;20056;-77
2022/06/04 07:02:17;;;;;;;6.45;3.70;;;18.40;99.90;;;;;;5027485;28;20071;-77
2022/06/04 07:04:44;;;;;;;8.13;3.95;;;18.40;99.90;;;;;;5048432;28;20107;-79
2022/06/04 07:07:11;;;;;;;7.63;2.80;;;18.30;99.90;;;;;;5023367;28;20045;-76
2022/06/04 07:09:41;;;;;;;8.38;3.85;;;18.50;99.90;;;;;;5026758;28;20057;-78
2022/06/04 07:12:09;;;;;;;4.47;3.25;;;18.80;99.90;;;;;;5046440;28;20058;-76
2022/06/04 07:14:36;;;;;;;4.70;2.95;;;19.20;99.90;;;;;;5046313;28;20239;-77
2022/06/04 07:17:07;;;;;;;5.07;2.67;;;19.50;99.90;;;;;;5039938;28;20045;-77
2022/06/04 07:19:34;;;;;;;5.50;3.53;;;20.00;99.90;;;;;;5016208;28;20057;-77
2022/06/04 07:22:05;;;;;;;4.68;3.03;;;20.30;99.90;;;;;;5044775;28;20057;-79
2022/06/04 07:24:32;;;;;;;3.63;2.67;;;20.60;99.90;;;;;;5054967;28;20063;-78
2022/06/04 07:27:00;;;;;;;4.53;2.88;;;20.90;99.90;;;;;;5060290;28;20100;-78
2022/06/04 07:29:28;;;;;;;4.72;2.90;;;21.20;99.90;;;;;;5056968;28;20384;-78
2022/06/04 07:31:55;;;;;;;5.18;2.50;;;21.40;99.60;;;;;;5053050;28;20137;-80
2022/06/04 07:34:24;;;;;;;4.07;3.08;;;21.70;98.70;;;;;;5047542;28;20060;-80
2022/06/04 07:36:52;;;;;;;4.82;3.53;;;22.00;97.70;;;;;;5047072;28;20056;-81
2022/06/04 07:39:19;;;;;;;3.88;2.50;;;22.10;97.40;;;;;;5061881;28;20055;-79
2022/06/04 07:41:51;;;;;;;4.25;2.58;;;22.20;96.40;;;;;;5054768;28;20395;-78
2022/06/04 07:44:18;;;;;;;6.68;2.90;;;22.10;95.80;;;;;;5037462;28;20405;-78
2022/06/04 07:46:47;;;;;;;4.47;2.20;;;22.30;95.50;;;;;;5065873;28;20059;-78
2022/06/04 07:49:16;;;;;;;4.85;2.35;;;22.50;95.50;;;;;;5051353;28;20064;-78
2022/06/04 07:51:46;;;;;;;4.60;2.60;;;22.80;94.40;;;;;;5072662;28;20056;-78
2022/06/04 07:54:15;;;;;;;;;;;22.90;92.20;;;;;;5038118;28;20235;-79
2022/06/04 07:56:43;;;;;;;6.25;2.28;;;22.80;89.30;;;;;;5049709;28;19921;-78
2022/06/04 07:59:15;;;;;;;4.70;2.17;;;22.90;92.60;;;;;;5072056;28;20055;-79
2022/06/04 08:01:43;;;;;;;4.80;2.40;;;23.10;90.40;;;;;;5051100;28;20126;-79
2022/06/04 08:04:10;;;;;;;4.18;2.20;;;23.10;91.20;;;;;;5066773;28;20055;-78
2022/06/04 08:06:37;;;;;;;4.45;2.40;;;23.30;91.10;;;;;;5055264;28;20082;-78
2022/06/04 08:09:06;;;;;;;4.05;2.20;;;23.50;90.90;;;;;;5050240;28;20492;-79
2022/06/04 08:11:33;;;;;;;3.38;1.80;;;23.70;89.90;;;;;;5041956;28;20055;-77
2022/06/04 08:14:09;;;;;;;4.93;2.30;;;23.80;88.00;;;;;;5053266;28;20053;-82
2022/06/04 08:16:37;;;;;;;5.43;2.58;;;23.80;82.90;;;;;;5065533;28;20461;-81
2022/06/04 08:19:05;;;;;;;4.35;2.42;;;23.90;86.00;;;;;;5037257;28;20393;-78
2022/06/04 08:21:33;;;;;;;3.92;2.25;;;24.20;85.50;;;;;;5065526;28;20078;-79
2022/06/04 08:24:00;;;;;;;6.80;2.30;;;24.50;84.00;;;;;;5072060;28;20607;-78
2022/06/04 08:26:32;;;;;;;8.25;2.72;;;24.80;83.50;;;;;;5056954;28;20448;-77
2022/06/04 08:28:59;;;;;;;5.03;2.30;;;25.00;80.10;;;;;;5064796;28;20059;-80
2022/06/04 08:31:27;;;;;;;4.72;2.10;;;25.30;81.10;;;;;;5063817;28;20060;-78
2022/06/04 08:33:55;;;;;;;5.43;2.30;;;25.30;79.50;;;;;;5043714;28;20528;-79
2022/06/04 08:36:22;;;;;;;5.78;2.60;;;25.40;79.20;;;;;;5057614;28;20044;-81
2022/06/04 08:38:48;;;;;;;4.93;2.42;;;25.80;79.10;;;;;;5056374;28;20052;-80
2022/06/04 08:41:40;;;;;;;4.45;2.78;;;25.80;78.40;;;;;;5072801;28;20051;-79
2022/06/04 08:44:11;;;;;;;5.75;2.50;;;25.80;75.00;;;;;;5056751;28;20504;-81
2022/06/04 08:46:43;;;;;;;4.28;2.65;;;25.90;77.90;;;;;;5048552;28;20040;-80
2022/06/04 08:49:14;;;;;;;4.50;2.03;;;26.00;76.50;;;;;;5035807;28;20060;-79
2022/06/04 08:51:44;;;;;;;5.22;1.90;;;26.00;75.10;;;;;;5035858;28;20057;-81
2022/06/04 08:59:57;;;;;;;5.47;2.38;;;26.00;70.80;;;;;;5053775;28;20049;-80
2022/06/04 09:02:40;;;;;;;5.45;2.40;;;26.20;72.60;;;;;;5036035;28;20065;-80
2022/06/04 09:05:19;;;;;;;3.80;2.15;;;26.20;71.60;;;;;;5038895;28;20049;-80
2022/06/04 09:07:50;;;;;;;5.78;2.75;;;26.10;71.10;;;;;;5053104;28;20041;-79
2022/06/04 09:10:22;;;;;;;4.30;2.70;;;26.10;72.20;;;;;;5046978;28;20401;-80
2022/06/04 09:12:56;;;;;;;4.25;2.00;;;26.20;72.10;;;;;;5044912;28;20087;-79
2022/06/04 09:15:29;;;;;;;3.78;1.90;;;26.10;72.10;;;;;;5053025;28;20051;-79
2022/06/04 09:17:58;;;;;;;5.78;2.58;;;25.90;71.80;;;;;;5053097;28;20076;-79
2022/06/04 09:20:33;;;;;;;4.07;1.90;;;25.70;72.40;;;;;;5053475;28;20079;-80
2022/06/04 09:23:05;;;;;;;4.72;2.20;;;25.20;70.60;;;;;;5052962;28;20357;-79
2022/06/04 09:25:41;;;;;;;4.80;2.30;;;24.70;72.40;;;;;;5053844;28;20573;-79
2022/06/04 09:28:20;;;;;;;3.60;1.90;;;24.20;73.20;;;;;;5052535;28;20523;-80
2022/06/04 09:30:53;;;;;;;4.35;2.38;;;24.00;73.10;;;;;;5035617;28;20071;-80
2022/06/04 09:33:47;;;;;;;5.20;2.25;;;23.90;74.90;;;;;;5053533;28;20528;-80
2022/06/04 09:36:17;;;;;;;6.35;2.42;;;24.10;72.30;;;;;;5053120;28;20451;-79
2022/06/04 09:38:53;;;;;;;2.72;1.70;;;24.30;73.90;;;;;;5035712;28;20175;-80
2022/06/04 09:41:23;;;;;;;3.55;2.40;;;24.30;72.80;;;;;;5035606;28;20053;-80
2022/06/04 09:44:04;;;;;;;3.80;2.53;;;24.10;73.90;;;;;;5052809;28;20057;-81
2022/06/04 09:46:31;;;;;;;5.22;2.05;;;23.80;73.60;;;;;;5035981;28;20048;-78
2022/06/04 09:48:59;;;;;;;3.53;1.80;;;23.60;74.30;;;;;;5038340;28;20049;-78
2022/06/04 09:51:29;;;;;;;4.32;1.95;;;23.80;74.70;;;;;;5037762;28;20063;-79
2022/06/04 09:54:00;;;;;;;3.55;2.13;;;24.50;74.40;;;;;;5037855;28;20378;-78
2022/06/04 09:56:33;;;;;;;5.18;2.20;;;25.10;73.60;;;;;;5038820;28;20493;-78
2022/06/04 09:59:17;;;;;;;4.68;2.08;;;25.50;73.00;;;;;;5057043;28;20056;-78
2022/06/04 10:01:53;;;;;;;4.32;2.00;;;25.70;71.00;;;;;;5056858;28;20055;-79
2022/06/04 10:04:21;;;;;;;3.33;1.90;;;25.40;69.90;;;;;;5037285;28;20048;-77
2022/06/04 10:06:48;;;;;;;5.88;2.20;;;25.20;71.80;;;;;;5062376;28;20080;-80
2022/06/04 10:12:03;;;;;;;5.78;2.00;;;25.30;73.30;;;;;;5047786;28;20053;-77
2022/06/04 10:14:34;;;;;;;3.38;2.30;;;25.50;73.70;;;;;;5061201;28;20057;-78
2022/06/04 10:17:01;;;;;;;5.00;2.45;;;25.90;73.80;;;;;;5037358;28;20132;-78
2022/06/04 10:19:30;;;;;;;2.97;1.92;;;26.10;73.30;;;;;;5054095;28;20468;-77
2022/06/04 10:22:07;;;;;;;4.22;2.25;;;26.20;72.30;;;;;;5054930;28;20122;-80
2022/06/04 10:24:42;;;;;;;3.90;2.15;;;26.50;72.20;;;;;;5048209;28;20052;-79
2022/06/04 10:27:26;;;;;;;5.53;2.30;;;26.50;71.20;;;;;;5055687;28;20048;-78
2022/06/04 10:30:14;;;;;;;5.78;2.65;;;26.60;70.30;;;;;;5057609;28;20420;-78
2022/06/04 10:32:57;;;;;;;3.92;2.20;;;26.40;70.50;;;;;;5054107;28;20053;-78
2022/06/04 10:35:39;;;;;;;4.90;2.15;;;26.40;70.00;;;;;;5054057;28;20102;-79
2022/06/04 10:38:16;;;;;;;3.45;1.85;;;26.30;70.20;;;;;;5050191;28;20049;-79
2022/06/04 10:40:51;;;;;;;4.32;2.10;;;26.40;70.80;;;;;;5055397;28;20052;-77
2022/06/04 10:43:32;;;;;;;4.82;2.33;;;26.60;70.30;;;;;;5043790;28;20049;-79
2022/06/04 10:46:08;;;;;;;3.05;2.13;;;26.60;69.20;;;;;;5049763;28;20052;-80
2022/06/04 10:48:53;;;;;;;4.65;2.40;;;26.70;70.30;;;;;;5054016;28;20048;-79
2022/06/04 10:51:32;;;;;;;3.80;2.45;;;26.80;69.20;;;;;;5052190;28;20061;-79
2022/06/04 10:54:13;;;;;;;3.20;2.35;;;26.80;69.80;;;;;;5055478;28;20055;-78
2022/06/04 10:56:46;;;;;;;6.50;2.50;;;27.20;69.60;;;;;;5072048;28;20056;-80
2022/06/04 10:59:21;;;;;;;6.35;2.28;;;27.30;69.70;;;;;;5054789;28;20045;-81
2022/06/04 11:01:56;;;;;;;3.72;2.42;;;27.30;69.40;;;;;;5054109;28;20111;-79
2022/06/04 11:04:33;;;;;;;5.32;2.20;;;27.30;68.40;;;;;;5040011;28;20076;-78
2022/06/04 11:07:06;;;;;;;4.30;2.20;;;27.30;68.90;;;;;;5039313;28;20056;-79
2022/06/04 11:09:38;;;;;;;5.15;2.13;;;27.30;68.70;;;;;;5038387;28;20515;-79
2022/06/04 11:12:19;;;;;;;3.88;2.63;;;27.40;68.60;;;;;;5044184;28;20057;-80
2022/06/04 11:14:49;;;;;;;4.60;2.17;;;27.40;68.30;;;;;;5065586;28;20205;-79
2022/06/04 11:17:22;;;;;;;5.65;2.30;;;27.30;69.20;;;;;;5054888;28;20048;-81
2022/06/04 11:19:59;;;;;;;4.38;2.15;;;27.30;68.70;;;;;;5037926;28;20056;-81
2022/06/04 11:22:32;;;;;;;5.75;2.28;;;27.20;68.20;;;;;;5055497;28;20049;-81
2022/06/04 11:25:04;;;;;;;4.18;2.50;;;27.10;67.70;;;;;;5055948;28;20515;-81
2022/06/04 11:27:36;;;;;;;4.90;2.33;;;27.10;68.50;;;;;;5056083;28;20405;-81
2022/06/04 11:30:07;;;;;;;4.80;2.40;;;27.20;68.80;;;;;;5055431;28;20064;-80
2022/06/04 11:32:45;;;;;;;3.88;2.15;;;27.30;68.10;;;;;;5038618;28;20053;-81
2022/06/04 11:35:21;;;;;;;4.45;2.50;;;27.10;67.90;;;;;;5038238;28;20052;-81
2022/06/04 11:38:16;;;;;;;4.90;2.40;;;26.90;67.70;;;;;;5037858;28;20049;-81
2022/06/04 11:40:50;;;;;;;4.07;2.58;;;27.00;68.40;;;;;;5038331;28;20060;-81
2022/06/04 11:43:25;;;;;;;6.97;2.80;;;26.90;68.70;;;;;;5037146;28;20045;-80
2022/06/04 11:46:03;;;;;;;5.50;2.60;;;27.00;68.30;;;;;;5038035;28;20052;-81
2022/06/04 11:48:54;;;;;;;4.45;2.53;;;27.10;68.20;;;;;;5037465;28;20045;-81
2022/06/04 11:51:38;;;;;;;6.00;2.40;;;27.10;69.10;;;;;;5055866;28;20462;-81
2022/06/04 11:54:14;;;;;;;4.32;2.60;;;27.30;67.70;;;;;;5038126;28;20053;-82
2022/06/04 11:56:49;;;;;;;3.75;2.63;;;27.30;67.50;;;;;;5037081;28;20071;-82
2022/06/04 11:59:27;;;;;;;4.30;2.55;;;27.30;68.30;;;;;;5055730;28;20409;-82
2022/06/04 12:01:59;;;;;;;6.20;2.70;;;27.40;67.10;;;;;;5058038;28;20048;-82
2022/06/04 12:04:34;;;;;;;8.00;3.03;;;27.50;67.60;;;;;;5070238;28;20060;-82
2022/06/04 12:07:09;;;;;;;6.18;2.75;;;27.30;67.70;;;;;;5049248;28;20053;-82
2022/06/04 12:09:42;;;;;;;4.80;2.60;;;27.60;67.70;;;;;;5037302;28;20563;-82
2022/06/04 12:12:13;;;;;;;5.15;3.10;;;27.70;67.20;;;;;;5059292;28;20092;-81
2022/06/04 12:14:45;;;;;;;5.20;2.70;;;27.80;67.90;;;;;;5043226;28;20131;-81
2022/06/04 12:17:17;;;;;;;3.45;2.10;;;28.00;67.20;;;;;;5054380;28;20131;-82
2022/06/04 12:25:38;;;;;;;4.72;2.50;;;27.80;68.30;;;;;;5035920;28;20110;-82
2022/06/04 12:28:24;;;;;;;5.68;2.70;;;27.70;66.50;;;;;;5056654;28;20045;-81
2022/06/04 12:30:51;;;;;;;5.45;2.60;;;27.60;66.20;;;;;;5059798;28;20080;-81
2022/06/04 12:33:26;;;;;;;6.78;2.63;;;27.80;67.70;;;;;;5040037;28;20057;-81
2022/06/04 12:35:57;;;;;;;4.22;2.67;;;27.90;67.20;;;;;;5058068;28;20053;-81
2022/06/04 12:38:25;;;;;;;6.47;2.47;;;27.80;68.50;;;;;;5056297;28;20051;-82
2022/06/04 12:40:52;;;;;;;10.02;2.90;;;27.80;67.60;;;;;;5053941;28;20049;-81
2022/06/04 12:43:31;;;;;;;3.28;2.20;;;27.70;67.40;;;;;;5054304;28;20056;-81
2022/06/04 12:46:13;;;;;;;5.53;3.17;;;27.60;66.80;;;;;;5066901;28;20049;-80
2022/06/04 12:48:54;;;;;;;6.50;2.75;;;27.60;66.70;;;;;;5053910;28;20133;-79
2022/06/04 12:51:36;;;;;;;5.50;2.55;;;27.60;67.30;;;;;;5054297;28;20140;-78
2022/06/04 12:54:08;;;;;;;6.00;2.65;;;27.60;67.20;;;;;;5053155;28;20052;-79
2022/06/04 12:56:38;;;;;;;6.07;2.35;;;27.70;67.60;;;;;;5053656;28;20057;-78
2022/06/04 12:59:23;;;;;;;6.18;2.97;;;27.90;67.80;;;;;;5068760;28;20080;-79
2022/06/04 13:01:50;;;;;;;9.23;2.80;;;27.70;67.70;;;;;;5053439;28;20048;-78
2022/06/04 13:04:25;;;;;;;7.75;3.08;;;27.80;68.00;;;;;;5035894;28;20493;-79
2022/06/04 13:07:00;;;;;;;8.80;3.20;;;28.10;67.90;;;;;;5068467;28;20056;-79
2022/06/04 13:09:51;;;;;;;4.43;2.45;;;28.00;67.30;;;;;;5053537;28;20045;-79
2022/06/04 13:12:31;;;;;;;5.45;2.90;;;28.20;66.80;;;;;;5037214;28;20056;-78
2022/06/04 13:15:17;;;;;;;7.22;3.03;;;28.40;66.50;;;;;;5033296;28;20091;-79
2022/06/04 13:17:47;;;;;;;4.90;2.63;;;28.70;65.70;;;;;;5050202;28;20090;-79
2022/06/04 13:20:35;;;;;;;6.30;2.83;;;28.50;66.00;;;;;;5034139;28;20061;-80
2022/06/04 13:23:13;;;;;;;6.93;3.05;;;28.10;66.00;;;;;;5051643;28;20055;-80
2022/06/04 13:26:10;;;;;;;4.00;2.30;;;28.20;66.60;;;;;;5038363;28;20067;-80
2022/06/04 13:28:39;;;;;;;5.60;2.65;;;28.00;67.10;;;;;;5049710;28;20045;-80
2022/06/04 13:31:16;;;;;;;5.32;2.83;;;27.90;67.10;;;;;;5056257;28;20515;-80
2022/06/04 13:33:43;;;;;;;6.72;2.60;;;27.90;67.00;;;;;;5066740;28;20056;-78
2022/06/04 13:36:12;;;;;;;4.28;2.50;;;27.70;67.10;;;;;;5067294;28;20056;-79
2022/06/04 13:38:42;;;;;;;6.37;3.17;;;27.70;67.20;;;;;;5042720;28;20397;-79